createdAt,value
2023-02-08T00:01:22.230Z,11.73
2023-02-08T00:03:50.603Z,11.73
2023-02-08T00:06:19.524Z,9.95
2023-02-08T00:08:47.871Z,11.55
2023-02-08T00:11:17.105Z,10.95
2023-02-08T00:13:44.965Z,11.32
2023-02-08T00:16:14.487Z,9.68
2023-02-08T00:18:42.876Z,10.43
2023-02-08T00:21:11.963Z,10.18
2023-02-08T00:23:40.236Z,9.05
2023-02-08T00:26:09.023Z,10.20
2023-02-08T00:28:38.422Z,10.50
2023-02-08T00:31:06.614Z,10.50
2023-02-08T00:33:35.905Z,10.60
2023-02-08T00:36:06.017Z,10.85
2023-02-08T00:38:33.936Z,10.35
2023-02-08T00:41:01.868Z,9.68
2023-02-08T00:43:29.847Z,10.90
2023-02-08T00:46:02.114Z,9.80
2023-02-08T00:48:30.189Z,10.57
2023-02-08T00:50:59.633Z,10.05
2023-02-08T00:53:30.096Z,10.60
2023-02-08T00:55:57.972Z,11.27
2023-02-08T00:58:29.347Z,10.90
2023-02-08T01:00:57.149Z,12.07
2023-02-08T01:03:26.312Z,11.10
2023-02-08T01:05:54.650Z,10.90
2023-02-08T01:08:22.492Z,10.35
2023-02-08T01:10:50.616Z,10.75
2023-02-08T01:13:18.400Z,10.45
2023-02-08T01:15:46.369Z,11.57
2023-02-08T01:18:14.269Z,13.80
2023-02-08T01:20:44.328Z,12.00
2023-02-08T01:23:12.226Z,11.98
2023-02-08T01:25:40.522Z,12.80
2023-02-08T01:28:08.442Z,13.82
2023-02-08T01:30:36.817Z,9.85
2023-02-08T01:33:04.736Z,11.20
2023-02-08T01:35:32.711Z,12.02
2023-02-08T01:38:02.015Z,10.85
2023-02-08T01:40:29.855Z,10.07
2023-02-08T01:42:57.867Z,10.80
2023-02-08T01:45:29.888Z,13.30
2023-02-08T01:48:19.042Z,12.50
2023-02-08T01:50:53.384Z,10.18
2023-02-08T01:53:24.063Z,12.55
2023-02-08T01:55:55.849Z,10.85
2023-02-08T01:58:28.242Z,10.15
2023-02-08T02:00:56.223Z,10.80
2023-02-08T02:03:25.622Z,11.27
2023-02-08T02:05:58.558Z,11.43
2023-02-08T02:08:29.881Z,11.23
2023-02-08T02:10:57.714Z,11.02
2023-02-08T02:13:28.699Z,10.75
2023-02-08T02:15:57.944Z,10.00
2023-02-08T02:18:28.358Z,10.95
2023-02-08T02:21:10.747Z,10.73
2023-02-08T02:24:28.393Z,10.20
2023-02-08T02:27:23.362Z,11.57
2023-02-08T02:30:30.933Z,10.63
2023-02-08T02:33:20.125Z,10.35
2023-02-08T02:35:57.856Z,10.88
2023-02-08T02:38:41.937Z,9.95
2023-02-08T02:41:39.840Z,10.45
2023-02-08T02:44:13.349Z,10.07
2023-02-08T02:46:47.752Z,8.55
2023-02-08T02:51:52.126Z,8.50
2023-02-08T02:54:23.838Z,11.20
2023-02-08T02:56:55.935Z,10.00
2023-02-08T02:59:24.218Z,9.77
2023-02-08T03:01:55.753Z,9.45
2023-02-08T03:04:54.216Z,10.38
2023-02-08T03:07:43.786Z,10.40
2023-02-08T03:10:27.959Z,10.65
2023-02-08T03:13:02.298Z,9.52
2023-02-08T03:15:39.171Z,9.13
2023-02-08T03:18:21.273Z,10.13
2023-02-08T03:20:55.529Z,11.82
2023-02-08T03:23:29.086Z,10.32
2023-02-08T03:26:05.899Z,9.30
2023-02-08T03:28:41.595Z,10.60
2023-02-08T03:31:16.173Z,10.18
2023-02-08T03:33:50.593Z,9.32
2023-02-08T03:36:25.671Z,9.38
2023-02-08T03:38:55.861Z,10.95
2023-02-08T03:41:36.062Z,7.82
2023-02-08T03:44:10.611Z,8.07
2023-02-08T03:46:42.548Z,8.00
2023-02-08T03:49:16.207Z,9.07
2023-02-08T03:51:47.124Z,8.85
2023-02-08T03:54:20.278Z,9.73
2023-02-08T03:56:53.496Z,10.05
2023-02-08T03:59:25.996Z,8.30
2023-02-08T04:01:58.845Z,9.88
2023-02-08T04:04:30.330Z,8.65
2023-02-08T04:06:59.598Z,8.18
2023-02-08T04:09:27.426Z,9.95
2023-02-08T04:11:55.271Z,9.35
2023-02-08T04:14:23.176Z,9.50
2023-02-08T04:16:51.001Z,8.60
2023-02-08T04:19:18.759Z,8.10
2023-02-08T04:21:46.503Z,8.52
2023-02-08T04:24:15.615Z,10.18
2023-02-08T04:26:43.443Z,8.50
2023-02-08T04:29:11.213Z,7.93
2023-02-08T04:31:39.025Z,9.13
2023-02-08T04:34:06.836Z,8.27
2023-02-08T04:36:34.719Z,9.55
2023-02-08T04:39:02.451Z,9.57
2023-02-08T04:41:31.877Z,8.85
2023-02-08T04:43:59.658Z,10.32
2023-02-08T04:46:27.485Z,9.40
2023-02-08T04:48:56.202Z,8.90
2023-02-08T04:51:24.609Z,8.90
2023-02-08T04:53:52.408Z,9.55
2023-02-08T04:56:20.173Z,8.85
2023-02-08T04:58:49.438Z,11.90
2023-02-08T05:01:17.428Z,9.50
2023-02-08T05:03:45.475Z,12.63
2023-02-08T05:06:13.386Z,10.90
2023-02-08T05:08:41.167Z,8.80
2023-02-08T05:11:08.968Z,8.43
2023-02-08T05:13:36.709Z,9.70
2023-02-08T05:16:06.338Z,10.00
2023-02-08T05:18:34.070Z,9.50
2023-02-08T05:21:03.913Z,7.93
2023-02-08T05:23:32.123Z,9.35
2023-02-08T05:26:00.420Z,8.85
2023-02-08T05:28:28.474Z,9.90
2023-02-08T05:30:56.418Z,9.65
2023-02-08T05:33:25.628Z,10.50
2023-02-08T05:35:53.364Z,9.70
2023-02-08T05:38:21.200Z,8.15
2023-02-08T05:40:48.968Z,9.00
2023-02-08T05:43:16.757Z,8.50
2023-02-08T05:45:44.555Z,10.07
2023-02-08T05:48:12.540Z,9.80
2023-02-08T05:50:41.848Z,8.93
2023-02-08T05:53:11.097Z,8.75
2023-02-08T05:55:38.894Z,9.70
2023-02-08T05:58:06.604Z,11.38
2023-02-08T06:00:34.340Z,11.15
2023-02-08T06:03:02.074Z,9.63
2023-02-08T06:05:29.839Z,10.07
2023-02-08T06:07:58.970Z,10.18
2023-02-08T06:10:26.984Z,10.88
2023-02-08T06:12:54.718Z,10.02
2023-02-08T06:15:22.461Z,9.10
2023-02-08T06:17:50.188Z,9.90
2023-02-08T06:20:18.558Z,9.70
2023-02-08T06:22:46.345Z,11.60
2023-02-08T06:25:15.506Z,11.02
2023-02-08T06:27:43.232Z,12.00
2023-02-08T06:30:12.333Z,11.50
2023-02-08T06:32:40.363Z,12.30
2023-02-08T06:35:09.242Z,11.30
2023-02-08T06:37:37.244Z,12.25
2023-02-08T06:40:05.827Z,11.35
2023-02-08T06:42:34.895Z,11.40
2023-02-08T06:45:02.693Z,11.30
2023-02-08T06:47:30.540Z,10.48
2023-02-08T06:49:58.310Z,11.57
2023-02-08T06:52:26.065Z,11.80
2023-02-08T06:54:54.005Z,10.77
2023-02-08T06:57:21.697Z,9.40
2023-02-08T06:59:50.875Z,9.75
2023-02-08T07:02:20.690Z,11.45
2023-02-08T07:04:48.770Z,10.85
2023-02-08T07:07:18.086Z,11.60
2023-02-08T07:09:46.204Z,12.60
2023-02-08T07:12:14.224Z,11.48
2023-02-08T07:14:43.730Z,10.32
2023-02-08T07:17:13.829Z,12.15
2023-02-08T07:19:41.880Z,12.50
2023-02-08T07:22:09.805Z,11.13
2023-02-08T07:24:38.232Z,12.65
2023-02-08T07:27:07.676Z,13.70
2023-02-08T07:29:35.824Z,11.85
2023-02-08T07:32:05.387Z,11.85
2023-02-08T07:34:37.266Z,10.85
2023-02-08T07:37:05.507Z,14.52
2023-02-08T07:39:33.453Z,12.93
2023-02-08T07:42:01.563Z,12.57
2023-02-08T07:44:35.005Z,10.93
2023-02-08T07:47:02.989Z,11.85
2023-02-08T07:49:30.916Z,11.60
2023-02-08T07:52:00.371Z,11.43
2023-02-08T07:54:28.412Z,9.88
2023-02-08T07:56:56.124Z,9.52
2023-02-08T07:59:24.238Z,7.88
2023-02-08T08:01:52.011Z,9.77
2023-02-08T08:04:22.046Z,11.30
2023-02-08T08:06:51.447Z,11.32
2023-02-08T08:09:20.796Z,11.57
2023-02-08T08:11:48.536Z,10.85
2023-02-08T08:14:16.288Z,11.77
2023-02-08T08:16:44.108Z,10.50
2023-02-08T08:19:11.861Z,9.63
2023-02-08T08:21:39.697Z,10.80
2023-02-08T08:24:07.921Z,11.13
2023-02-08T08:26:37.041Z,12.90
2023-02-08T08:29:04.933Z,8.85
2023-02-08T08:31:32.753Z,9.68
2023-02-08T08:34:00.570Z,9.70
2023-02-08T08:36:28.545Z,10.15
2023-02-08T08:38:56.260Z,12.50
2023-02-08T08:41:27.096Z,11.52
2023-02-08T08:43:56.504Z,10.50
2023-02-08T08:46:24.299Z,10.40
2023-02-08T08:48:52.702Z,11.02
2023-02-08T08:51:20.562Z,10.73
2023-02-08T08:53:48.463Z,8.95
2023-02-08T08:56:16.306Z,8.48
2023-02-08T08:58:44.503Z,8.68
2023-02-08T09:01:14.368Z,8.88
2023-02-08T09:03:42.215Z,9.68
2023-02-08T09:06:10.197Z,8.68
2023-02-08T09:08:38.092Z,8.98
2023-02-08T09:11:07.637Z,8.95
2023-02-08T09:13:36.202Z,7.32
2023-02-08T09:16:08.153Z,8.02
2023-02-08T09:18:37.643Z,7.35
2023-02-08T09:21:07.303Z,9.52
2023-02-08T09:23:35.128Z,8.68
2023-02-08T09:26:03.684Z,8.68
2023-02-08T09:28:31.688Z,7.43
2023-02-08T09:31:01.732Z,9.75
2023-02-08T09:33:29.696Z,8.95
2023-02-08T09:35:58.911Z,9.55
2023-02-08T09:38:26.948Z,9.02
2023-02-08T09:41:03.445Z,6.78
2023-02-08T09:43:44.501Z,8.18
2023-02-08T09:46:17.742Z,8.02
2023-02-08T09:48:46.738Z,8.77
2023-02-08T09:51:26.644Z,9.00
2023-02-08T09:54:00.100Z,8.52
2023-02-08T09:56:31.286Z,8.00
2023-02-08T09:59:01.667Z,7.65
2023-02-08T10:01:32.324Z,8.27
2023-02-08T10:04:07.104Z,7.55
2023-02-08T10:06:36.751Z,8.13
2023-02-08T10:09:09.262Z,6.85
2023-02-08T10:11:48.480Z,7.32
2023-02-08T10:14:31.323Z,7.65
2023-02-08T10:17:11.090Z,7.43
2023-02-08T10:19:54.999Z,6.05
2023-02-08T10:22:34.650Z,7.43
2023-02-08T10:25:17.638Z,5.53
2023-02-08T10:28:01.685Z,8.15
2023-02-08T10:30:38.307Z,6.95
2023-02-08T10:33:14.011Z,7.07
2023-02-08T10:35:46.262Z,6.85
2023-02-08T10:38:37.162Z,6.05
2023-02-08T10:41:19.603Z,6.68
2023-02-08T10:43:52.843Z,6.60
2023-02-08T10:49:05.228Z,5.65
2023-02-08T10:51:33.120Z,6.50
2023-02-08T10:54:02.526Z,6.47
2023-02-08T10:56:41.999Z,5.22
2023-02-08T10:59:17.290Z,6.05
2023-02-08T11:01:47.251Z,6.18
2023-02-08T11:04:16.212Z,6.55
2023-02-08T11:06:45.505Z,6.55
2023-02-08T11:09:26.991Z,5.30
2023-02-08T11:11:55.861Z,6.55
2023-02-08T11:14:40.945Z,7.60
2023-02-08T11:17:26.996Z,6.25
2023-02-08T11:19:55.182Z,6.70
2023-02-08T11:22:25.810Z,5.80
2023-02-08T11:25:00.395Z,6.47
2023-02-08T11:27:33.937Z,5.93
2023-02-08T11:30:21.322Z,6.65
2023-02-08T11:32:52.883Z,5.80
2023-02-08T11:35:23.636Z,6.20
2023-02-08T11:37:53.608Z,7.15
2023-02-08T11:40:25.644Z,7.13
2023-02-08T11:42:53.946Z,6.70
2023-02-08T11:45:24.175Z,5.65
2023-02-08T11:47:53.012Z,4.80
2023-02-08T11:50:27.281Z,5.82
2023-02-08T11:52:59.700Z,5.93
2023-02-08T11:55:31.265Z,5.57
2023-02-08T11:58:02.378Z,5.45
2023-02-08T12:00:34.049Z,5.28
2023-02-08T12:03:05.741Z,6.05
2023-02-08T12:05:41.574Z,5.45
2023-02-08T12:08:20.032Z,5.90
2023-02-08T12:11:12.297Z,6.03
2023-02-08T12:14:17.519Z,5.40
2023-02-08T12:17:02.825Z,6.47
2023-02-08T12:19:47.138Z,5.72
2023-02-08T12:22:21.861Z,5.05
2023-02-08T12:24:54.550Z,5.80
2023-02-08T12:27:37.598Z,5.47
2023-02-08T12:30:14.407Z,6.40
2023-02-08T12:33:29.220Z,6.90
2023-02-08T12:36:27.687Z,5.82
2023-02-08T12:39:26.474Z,4.75
2023-02-08T12:42:17.399Z,6.22
2023-02-08T12:45:03.783Z,5.20
2023-02-08T12:47:58.238Z,5.72
2023-02-08T12:50:36.317Z,5.72
2023-02-08T12:53:09.458Z,5.38
2023-02-08T12:55:40.096Z,5.13
2023-02-08T12:58:23.486Z,5.90
2023-02-08T13:00:54.682Z,4.75
2023-02-08T13:03:33.417Z,5.07
2023-02-08T13:06:05.243Z,4.30
2023-02-08T13:08:40.686Z,4.40
2023-02-08T13:11:20.106Z,5.40
2023-02-08T13:13:56.763Z,4.78
2023-02-08T13:16:30.084Z,5.28
2023-02-08T13:19:12.030Z,4.32
2023-02-08T13:21:43.702Z,4.95
2023-02-08T13:24:28.202Z,4.53
2023-02-08T13:26:56.035Z,4.43
2023-02-08T13:29:26.578Z,5.28
2023-02-08T13:32:01.328Z,4.87
2023-02-08T13:34:34.854Z,4.50
2023-02-08T13:37:13.541Z,4.32
2023-02-08T13:39:49.259Z,5.45
2023-02-08T13:42:23.662Z,4.45
2023-02-08T13:44:55.077Z,4.68
2023-02-08T13:47:27.653Z,5.05
2023-02-08T13:50:00.003Z,3.42
2023-02-08T13:52:52.965Z,4.68
2023-02-08T13:55:46.012Z,5.03
2023-02-08T13:59:05.016Z,3.83
2023-02-08T14:01:35.460Z,4.65
2023-02-08T14:04:32.831Z,3.65
2023-02-08T14:07:06.294Z,4.18
2023-02-08T14:09:47.153Z,4.15
2023-02-08T14:12:23.509Z,3.78
2023-02-08T14:15:09.273Z,4.32
2023-02-08T14:17:37.473Z,4.05
2023-02-08T14:20:08.690Z,3.80
2023-02-08T14:22:40.105Z,5.18
2023-02-08T14:25:18.110Z,4.70
2023-02-08T14:27:53.164Z,5.05
2023-02-08T14:30:28.512Z,3.80
2023-02-08T14:33:17.293Z,4.65
2023-02-08T14:35:56.310Z,4.30
2023-02-08T14:38:52.059Z,5.00
2023-02-08T14:41:46.157Z,4.35
2023-02-08T14:44:53.760Z,4.53
2023-02-08T14:48:07.882Z,5.00
2023-02-08T14:50:42.541Z,4.78
2023-02-08T14:53:41.423Z,3.78
2023-02-08T14:56:19.886Z,4.10
2023-02-08T14:58:51.792Z,4.05
2023-02-08T15:01:21.676Z,4.00
2023-02-08T15:03:52.046Z,4.10
2023-02-08T15:07:01.642Z,5.40
2023-02-08T15:09:33.408Z,4.82
2023-02-08T15:12:03.815Z,4.40
2023-02-08T15:14:35.027Z,3.95
2023-02-08T15:17:03.429Z,3.78
2023-02-08T15:19:35.096Z,5.10
2023-02-08T15:22:20.408Z,5.28
2023-02-08T15:24:53.747Z,4.57
2023-02-08T15:27:23.554Z,4.50
2023-02-08T15:29:51.751Z,5.47
2023-02-08T15:32:23.436Z,4.50
2023-02-08T15:34:55.315Z,4.13
2023-02-08T15:37:24.111Z,4.65
2023-02-08T15:39:55.828Z,4.78
2023-02-08T15:42:26.226Z,4.53
2023-02-08T15:44:54.085Z,4.10
2023-02-08T15:47:27.766Z,5.30
2023-02-08T15:49:56.577Z,3.58
2023-02-08T15:52:26.764Z,4.03
2023-02-08T15:54:55.935Z,4.93
2023-02-08T15:57:33.836Z,4.03
2023-02-08T16:00:03.800Z,4.28
2023-02-08T16:02:35.787Z,4.90
2023-02-08T16:05:12.466Z,5.38
2023-02-08T16:07:45.774Z,4.80
2023-02-08T16:10:26.691Z,5.22
2023-02-08T16:12:57.323Z,4.88
2023-02-08T16:15:41.101Z,4.05
2023-02-08T16:18:33.920Z,4.35
2023-02-08T16:21:04.108Z,4.65
2023-02-08T16:23:33.993Z,4.38
2023-02-08T16:26:19.113Z,4.28
2023-02-08T16:28:53.890Z,5.88
2023-02-08T16:31:24.952Z,4.80
2023-02-08T16:34:00.571Z,5.43
2023-02-08T16:36:34.200Z,5.53
2023-02-08T16:39:46.921Z,5.47
2023-02-08T16:42:30.524Z,4.85
2023-02-08T16:45:14.539Z,4.35
2023-02-08T16:47:44.858Z,4.35
2023-02-08T16:50:14.963Z,6.75
2023-02-08T16:52:43.172Z,6.47
2023-02-08T16:55:18.999Z,6.30
2023-02-08T16:57:50.176Z,7.20
2023-02-08T17:00:21.763Z,5.90
2023-02-08T17:02:50.198Z,5.65
2023-02-08T17:05:19.890Z,5.95
2023-02-08T17:07:47.787Z,6.18
2023-02-08T17:10:22.080Z,5.50
2023-02-08T17:12:51.530Z,5.60
2023-02-08T17:15:20.922Z,5.00
2023-02-08T17:17:49.162Z,5.72
2023-02-08T17:20:23.833Z,5.13
2023-02-08T17:22:53.230Z,4.28
2023-02-08T17:25:23.404Z,4.82
2023-02-08T17:27:55.214Z,4.65
2023-02-08T17:30:26.015Z,5.47
2023-02-08T17:32:56.121Z,5.85
2023-02-08T17:35:24.181Z,5.53
2023-02-08T17:37:53.673Z,5.68
2023-02-08T17:40:23.740Z,6.63
2023-02-08T17:42:55.039Z,5.18
2023-02-08T17:45:22.838Z,6.53
2023-02-08T17:47:50.636Z,5.30
2023-02-08T17:50:19.485Z,5.63
2023-02-08T17:52:48.311Z,6.20
2023-02-08T17:55:18.033Z,5.15
2023-02-08T17:57:46.774Z,6.20
2023-02-08T18:00:18.568Z,6.13
2023-02-08T18:02:47.797Z,5.40
2023-02-08T18:05:16.001Z,6.53
2023-02-08T18:07:43.766Z,5.40
2023-02-08T18:10:13.612Z,5.57
2023-02-08T18:12:41.771Z,6.95
2023-02-08T18:15:13.032Z,9.18
2023-02-08T18:17:43.246Z,9.20
2023-02-08T18:20:14.130Z,7.07
2023-02-08T18:22:42.821Z,6.75
2023-02-08T18:25:11.340Z,8.45
2023-02-08T18:27:39.710Z,10.85
2023-02-08T18:30:08.499Z,9.88
2023-02-08T18:32:36.819Z,8.32
2023-02-08T18:35:07.357Z,7.07
2023-02-08T18:37:35.818Z,5.93
2023-02-08T18:40:04.176Z,7.15
2023-02-08T18:42:33.707Z,7.57
2023-02-08T18:45:02.953Z,8.55
2023-02-08T18:47:30.826Z,8.27
2023-02-08T18:49:58.740Z,8.02
2023-02-08T18:52:28.856Z,8.07
2023-02-08T18:54:57.858Z,8.07
2023-02-08T18:57:25.726Z,10.10
2023-02-08T18:59:54.220Z,8.45
2023-02-08T19:02:26.328Z,8.07
2023-02-08T19:04:54.349Z,8.75
2023-02-08T19:07:22.104Z,7.78
2023-02-08T19:09:51.400Z,6.80
2023-02-08T19:12:20.442Z,7.22
2023-02-08T19:14:50.481Z,6.85
2023-02-08T19:17:18.819Z,7.70
2023-02-08T19:19:46.638Z,6.60
2023-02-08T19:22:14.745Z,6.90
2023-02-08T19:24:42.519Z,7.72
2023-02-08T19:27:11.601Z,7.07
2023-02-08T19:29:39.561Z,7.20
2023-02-08T19:32:08.172Z,7.32
2023-02-08T19:34:36.079Z,9.18
2023-02-08T19:37:03.859Z,8.85
2023-02-08T19:39:31.744Z,7.45
2023-02-08T19:41:59.630Z,7.85
2023-02-08T19:44:30.670Z,8.02
2023-02-08T19:46:59.505Z,6.95
2023-02-08T19:49:28.399Z,6.35
2023-02-08T19:51:57.302Z,8.63
2023-02-08T19:54:25.442Z,6.60
2023-02-08T19:56:54.701Z,9.63
2023-02-08T19:59:24.755Z,6.78
2023-02-08T20:01:54.704Z,7.65
2023-02-08T20:04:23.335Z,8.32
2023-02-08T20:06:52.845Z,7.18
2023-02-08T20:09:21.063Z,7.57
2023-02-08T20:11:56.731Z,6.88
2023-02-08T20:14:24.971Z,7.50
2023-02-08T20:16:54.141Z,7.25
2023-02-08T20:19:21.998Z,6.15
2023-02-08T20:21:50.088Z,8.55
2023-02-08T20:24:18.778Z,7.68
2023-02-08T20:26:48.273Z,8.07
2023-02-08T20:29:16.795Z,8.55
2023-02-08T20:31:47.808Z,9.10
2023-02-08T20:34:18.930Z,7.20
2023-02-08T20:37:04.464Z,8.32
2023-02-08T20:39:34.311Z,7.97
2023-02-08T20:42:02.083Z,9.70
2023-02-08T20:44:31.482Z,9.25
2023-02-08T20:46:59.413Z,9.85
2023-02-08T20:49:30.749Z,9.27
2023-02-08T20:51:59.065Z,9.20
2023-02-08T20:54:27.047Z,7.20
2023-02-08T20:56:55.274Z,7.10
2023-02-08T20:59:24.040Z,8.93
2023-02-08T21:01:52.246Z,7.85
2023-02-08T21:04:23.355Z,7.75
2023-02-08T21:06:53.700Z,7.80
2023-02-08T21:09:21.918Z,7.55
2023-02-08T21:11:50.824Z,7.88
2023-02-08T21:14:21.224Z,8.50
2023-02-08T21:16:51.373Z,8.35
2023-02-08T21:19:20.573Z,8.25
2023-02-08T21:21:53.477Z,8.50
2023-02-08T21:24:21.452Z,8.15
2023-02-08T21:26:49.256Z,8.15
2023-02-08T21:29:17.523Z,8.23
2023-02-08T21:31:45.592Z,9.20
2023-02-08T21:34:13.891Z,8.60
2023-02-08T21:36:41.718Z,7.60
2023-02-08T21:39:10.951Z,8.32
2023-02-08T21:41:39.014Z,7.97
2023-02-08T21:44:08.305Z,7.93
2023-02-08T21:46:36.500Z,8.65
2023-02-08T21:49:21.853Z,9.18
2023-02-08T21:52:07.032Z,9.73
2023-02-08T21:54:42.867Z,8.00
2023-02-08T21:57:13.491Z,7.93
2023-02-08T21:59:41.483Z,10.15
2023-02-08T22:02:13.456Z,9.90
2023-02-08T22:04:42.411Z,9.25
2023-02-08T22:07:10.190Z,7.80
2023-02-08T22:09:41.580Z,8.40
2023-02-08T22:12:14.979Z,7.53
2023-02-08T22:14:42.977Z,8.48
2023-02-08T22:17:11.328Z,8.15
2023-02-08T22:19:40.400Z,7.97
2023-02-08T22:22:09.129Z,8.13
2023-02-08T22:24:37.737Z,8.23
2023-02-08T22:27:06.921Z,9.15
2023-02-08T22:29:34.868Z,8.40
2023-02-08T22:32:02.747Z,9.05
2023-02-08T22:34:30.639Z,7.15
2023-02-08T22:36:58.615Z,7.63
2023-02-08T22:39:26.518Z,9.68
2023-02-08T22:41:54.313Z,8.30
2023-02-08T22:44:23.570Z,9.15
2023-02-08T22:46:51.692Z,8.00
2023-02-08T22:49:19.600Z,8.60
2023-02-08T22:51:47.390Z,8.13
2023-02-08T22:54:15.263Z,9.90
2023-02-08T22:56:43.036Z,8.48
2023-02-08T22:59:11.200Z,8.13
2023-02-08T23:01:40.614Z,9.02
2023-02-08T23:04:08.567Z,7.68
2023-02-08T23:06:36.650Z,8.90
2023-02-08T23:09:05.306Z,9.38
2023-02-08T23:11:33.606Z,9.60
2023-02-08T23:14:01.768Z,8.45
2023-02-08T23:16:29.684Z,8.27
2023-02-08T23:18:59.064Z,11.55
2023-02-08T23:21:26.968Z,8.55
2023-02-08T23:23:54.859Z,8.20
2023-02-08T23:26:22.986Z,8.80
2023-02-08T23:28:52.262Z,9.73
2023-02-08T23:31:21.434Z,7.22
2023-02-08T23:33:50.263Z,8.38
2023-02-08T23:36:22.276Z,9.55
2023-02-08T23:38:51.286Z,8.35
2023-02-08T23:41:20.984Z,9.40
2023-02-08T23:43:50.410Z,9.38
2023-02-08T23:46:21.101Z,8.98
2023-02-08T23:48:49.586Z,9.50
2023-02-08T23:51:21.251Z,10.32
2023-02-08T23:53:49.770Z,8.82
2023-02-08T23:56:23.300Z,7.97
2023-02-08T23:58:54.211Z,10.57
